Time;durP1;ratioP1;P1;durP2;ratioP2;P2;SDS_P1;SDS_P2;PMS_P1;PMS_P2;Temp;Humidity;BMP_temperature;BMP_pressure;BME280_temperature;BME280_humidity;BME280_pressure;Samples;Min_cycle;Max_cycle;Signal;HPM_P1;HPM_P2
2022/12/01 00:00:12;;;;;;;41.20;20.10;;;7.10;99.90;;;;;;5073969;28;20067;-88
2022/12/01 00:02:37;;;;;;;40.60;19.90;;;7.10;99.90;;;;;;5074327;28;20085;-89
2022/12/01 00:05:03;;;;;;;41.42;19.55;;;7.10;99.90;;;;;;5094366;28;20044;-89
2022/12/01 00:07:28;;;;;;;40.50;21.35;;;7.10;99.90;;;;;;5077238;28;20440;-88
2022/12/01 00:12:42;;;;;;;39.72;19.58;;;7.00;99.90;;;;;;5093330;28;20044;-89
2022/12/01 00:15:09;;;;;;;41.85;20.48;;;7.10;99.90;;;;;;5082680;28;20496;-89
2022/12/01 00:17:35;;;;;;;39.65;19.75;;;7.00;99.90;;;;;;5116507;27;20101;-88
2022/12/01 00:20:01;;;;;;;40.03;20.77;;;7.00;99.90;;;;;;5083675;28;20439;-88
2022/12/01 00:22:26;;;;;;;41.00;21.42;;;7.00;99.90;;;;;;5072182;28;20043;-88
2022/12/01 00:24:52;;;;;;;44.33;21.38;;;7.00;99.90;;;;;;5093322;28;20051;-89
2022/12/01 00:27:17;;;;;;;40.95;20.20;;;7.00;99.90;;;;;;5093542;28;20044;-88
2022/12/01 00:29:44;;;;;;;41.05;18.92;;;7.00;99.90;;;;;;5076846;28;20028;-88
2022/12/01 00:32:09;;;;;;;42.90;19.65;;;7.00;99.90;;;;;;5076445;28;20078;-89
2022/12/01 00:34:36;;;;;;;43.97;19.83;;;7.00;99.90;;;;;;5076645;28;20082;-89
2022/12/01 00:37:02;;;;;;;42.60;20.60;;;7.10;99.90;;;;;;5076677;28;20047;-89
2022/12/01 00:39:28;;;;;;;49.58;22.02;;;7.00;99.90;;;;;;5093446;28;20055;-89
2022/12/01 00:41:53;;;;;;;45.33;21.58;;;7.00;99.90;;;;;;5093736;28;20047;-88
2022/12/01 00:44:19;;;;;;;46.00;22.90;;;7.00;99.90;;;;;;5076350;28;20032;-88
2022/12/01 00:46:45;;;;;;;48.70;22.85;;;7.00;99.90;;;;;;5076515;28;20036;-88
2022/12/01 00:49:12;;;;;;;50.17;24.20;;;7.00;99.90;;;;;;5076496;28;20117;-88
2022/12/01 00:51:38;;;;;;;47.83;22.38;;;7.00;99.90;;;;;;5093355;28;20039;-88
2022/12/01 00:54:03;;;;;;;46.92;20.70;;;7.00;99.90;;;;;;5092882;28;20036;-89
2022/12/01 00:56:29;;;;;;;49.85;23.17;;;7.00;99.90;;;;;;5093126;28;20093;-89
2022/12/01 00:58:54;;;;;;;49.67;23.20;;;7.00;99.90;;;;;;5073455;28;20114;-88
2022/12/01 01:01:20;;;;;;;50.50;20.83;;;7.00;99.90;;;;;;5074961;28;20048;-89
2022/12/01 01:03:46;;;;;;;50.50;22.33;;;7.00;99.90;;;;;;5093063;28;20042;-88
2022/12/01 01:06:12;;;;;;;57.95;24.50;;;7.00;99.90;;;;;;5076127;28;20485;-88
2022/12/01 01:08:38;;;;;;;57.88;24.75;;;7.00;99.90;;;;;;5092758;28;20062;-88
2022/12/01 01:11:06;;;;;;;57.58;22.90;;;7.00;99.90;;;;;;5076020;28;20032;-88
2022/12/01 01:13:32;;;;;;;56.60;24.33;;;7.00;99.90;;;;;;5074850;28;20051;-88
2022/12/01 01:16:09;;;;;;;60.08;23.60;;;7.00;99.90;;;;;;5092467;28;20048;-88
2022/12/01 01:18:34;;;;;;;56.05;23.55;;;7.00;99.90;;;;;;5093008;28;20558;-88
2022/12/01 01:21:04;;;;;;;50.97;21.73;;;7.00;99.90;;;;;;5075910;28;20040;-88
2022/12/01 01:23:30;;;;;;;61.90;26.67;;;7.00;99.90;;;;;;5075321;28;20531;-88
2022/12/01 01:26:04;;;;;;;52.67;22.77;;;7.00;99.90;;;;;;5075519;28;20040;-88
2022/12/01 01:28:30;;;;;;;69.35;26.80;;;7.00;99.90;;;;;;5076093;28;20102;-88
2022/12/01 01:30:56;;;;;;;60.33;25.05;;;7.00;99.90;;;;;;5092506;28;20512;-88
2022/12/01 01:33:22;;;;;;;54.63;24.00;;;7.00;99.90;;;;;;5075338;28;20032;-88
2022/12/01 01:35:47;;;;;;;57.58;22.50;;;7.00;99.90;;;;;;5092271;28;20051;-88
2022/12/01 01:38:13;;;;;;;63.22;26.13;;;7.00;99.90;;;;;;5075776;28;20071;-88
2022/12/01 01:40:45;;;;;;;60.78;24.65;;;7.00;99.90;;;;;;5075315;28;20036;-88
2022/12/01 01:43:16;;;;;;;65.68;25.10;;;7.00;99.90;;;;;;5092223;28;20497;-88
2022/12/01 01:45:42;;;;;;;62.40;24.85;;;7.00;99.90;;;;;;5092121;28;20048;-89
2022/12/01 01:48:12;;;;;;;64.90;29.10;;;7.00;99.90;;;;;;5092191;28;20036;-88
2022/12/01 01:50:38;;;;;;;62.13;27.60;;;7.00;99.90;;;;;;5092173;28;20036;-88
2022/12/01 01:53:09;;;;;;;56.08;24.10;;;7.00;99.90;;;;;;5091881;28;20039;-88
2022/12/01 01:55:35;;;;;;;63.78;26.15;;;7.00;99.90;;;;;;5075243;28;20048;-88
2022/12/01 01:58:03;;;;;;;65.43;26.92;;;7.00;99.90;;;;;;5075210;28;20040;-89
2022/12/01 02:00:29;;;;;;;63.10;23.75;;;7.00;99.90;;;;;;5089655;28;20040;-88
2022/12/01 02:02:56;;;;;;;60.88;25.80;;;6.90;99.90;;;;;;5091742;28;20040;-87
2022/12/01 02:05:29;;;;;;;54.65;24.48;;;7.00;99.90;;;;;;5091827;28;20040;-88
2022/12/01 02:07:57;;;;;;;58.70;24.65;;;7.00;99.90;;;;;;5091712;28;20038;-87
2022/12/01 02:11:05;;;;;;;59.15;25.92;;;6.90;99.90;;;;;;5091815;28;20036;-87
2022/12/01 02:13:55;;;;;;;62.22;25.95;;;7.00;99.90;;;;;;5091192;28;20123;-88
2022/12/01 02:16:58;;;;;;;62.03;24.05;;;7.00;99.90;;;;;;5098898;28;20439;-87
2022/12/01 02:19:27;;;;;;;58.08;25.67;;;6.90;99.90;;;;;;5063916;28;20052;-87
2022/12/01 02:22:16;;;;;;;64.35;24.48;;;7.00;99.90;;;;;;5095128;28;20092;-88
2022/12/01 02:25:03;;;;;;;56.30;23.52;;;6.90;99.90;;;;;;5111666;28;20145;-87
2022/12/01 02:28:05;;;;;;;64.85;25.70;;;6.90;99.90;;;;;;5094823;28;20050;-87
2022/12/01 02:30:46;;;;;;;59.37;24.37;;;6.90;99.90;;;;;;5094619;28;20123;-87
2022/12/01 02:33:36;;;;;;;62.70;24.80;;;6.90;99.90;;;;;;5094515;28;20036;-87
2022/12/01 02:36:16;;;;;;;61.22;24.55;;;6.90;99.90;;;;;;5091809;28;20042;-87
2022/12/01 02:38:47;;;;;;;61.00;26.10;;;6.90;99.90;;;;;;5091345;28;20040;-88
2022/12/01 02:41:21;;;;;;;61.55;25.85;;;6.90;99.90;;;;;;5074242;28;20035;-87
2022/12/01 02:43:56;;;;;;;62.42;24.80;;;6.90;99.90;;;;;;5090984;28;20040;-87
2022/12/01 02:46:29;;;;;;;60.08;25.35;;;6.90;99.90;;;;;;5074113;28;20556;-88
2022/12/01 02:49:00;;;;;;;59.20;25.10;;;6.90;99.90;;;;;;5074292;28;20047;-87
2022/12/01 02:51:29;;;;;;;58.03;24.65;;;6.90;99.90;;;;;;5074032;28;20036;-88
2022/12/01 02:54:01;;;;;;;65.40;26.05;;;6.90;99.90;;;;;;5090935;28;20160;-87
2022/12/01 02:56:27;;;;;;;50.95;24.00;;;7.00;99.90;;;;;;5091205;28;20079;-87
2022/12/01 02:58:52;;;;;;;57.47;26.85;;;6.90;99.90;;;;;;5072559;28;20042;-87
2022/12/01 03:01:21;;;;;;;63.33;25.90;;;6.90;99.90;;;;;;5107212;28;20135;-87
2022/12/01 03:03:55;;;;;;;58.72;26.85;;;7.00;99.90;;;;;;5072914;28;20390;-87
2022/12/01 03:06:51;;;;;;;65.28;26.05;;;7.00;99.90;;;;;;5124666;27;20101;-88
2022/12/01 03:09:37;;;;;;;71.80;27.38;;;7.00;99.90;;;;;;5124912;27;20040;-87
2022/12/01 03:12:08;;;;;;;58.22;26.50;;;7.00;99.90;;;;;;5073623;28;20044;-87
2022/12/01 03:14:52;;;;;;;70.45;29.38;;;7.00;99.90;;;;;;5107865;28;20094;-87
2022/12/01 03:17:26;;;;;;;60.38;26.45;;;7.00;99.90;;;;;;5073682;28;20054;-87
2022/12/01 03:20:07;;;;;;;61.63;26.15;;;7.00;99.90;;;;;;5090599;28;20043;-87
2022/12/01 03:22:45;;;;;;;58.53;24.92;;;7.00;99.90;;;;;;5090328;28;20040;-87
2022/12/01 03:25:13;;;;;;;64.07;26.20;;;7.00;99.90;;;;;;5073584;28;20075;-87
2022/12/01 03:27:41;;;;;;;64.75;26.73;;;7.00;99.90;;;;;;5090496;28;20036;-87
2022/12/01 03:30:09;;;;;;;57.88;26.27;;;7.00;99.90;;;;;;5124573;28;20444;-87
2022/12/01 03:32:50;;;;;;;58.45;26.25;;;7.00;99.90;;;;;;5073487;28;20040;-87
2022/12/01 03:35:23;;;;;;;61.35;28.27;;;7.00;99.90;;;;;;5090319;28;20040;-88
2022/12/01 03:37:56;;;;;;;53.05;25.60;;;7.00;99.90;;;;;;5092239;28;20036;-88
2022/12/01 03:40:26;;;;;;;;;;;6.90;99.90;;;;;;5078477;28;20040;-88
2022/12/01 03:42:58;;;;;;;54.95;26.25;;;7.00;99.90;;;;;;5077814;28;19994;-87
2022/12/01 03:45:32;;;;;;;56.05;24.35;;;7.00;99.90;;;;;;5077568;28;20036;-87
2022/12/01 03:47:58;;;;;;;56.05;26.38;;;6.90;99.90;;;;;;5094570;28;20063;-87
2022/12/01 03:50:44;;;;;;;53.17;24.40;;;6.90;99.90;;;;;;5094481;28;20401;-88
2022/12/01 03:53:26;;;;;;;56.65;26.17;;;6.90;99.90;;;;;;5094216;28;20040;-87
2022/12/01 03:56:03;;;;;;;57.65;26.33;;;6.90;99.90;;;;;;5077450;28;20100;-87
2022/12/01 03:58:45;;;;;;;56.47;25.75;;;6.90;99.90;;;;;;5075063;28;20104;-87
2022/12/01 04:01:11;;;;;;;50.83;22.52;;;6.90;99.90;;;;;;5097069;28;20472;-87
2022/12/01 04:03:37;;;;;;;57.40;27.73;;;6.90;99.90;;;;;;5077003;28;20071;-87
2022/12/01 04:06:03;;;;;;;58.25;26.63;;;6.90;99.90;;;;;;5094147;28;20044;-87
2022/12/01 04:08:29;;;;;;;56.40;26.25;;;6.90;99.90;;;;;;5094014;28;20043;-87
2022/12/01 04:10:56;;;;;;;51.42;24.45;;;6.90;99.90;;;;;;5077585;28;20028;-87
2022/12/01 04:13:22;;;;;;;53.42;25.60;;;6.90;99.90;;;;;;5076839;28;20028;-87
2022/12/01 04:15:49;;;;;;;54.50;25.38;;;6.90;99.90;;;;;;5094157;28;20047;-87
2022/12/01 04:18:15;;;;;;;52.63;25.42;;;6.90;99.90;;;;;;5093961;28;20072;-87
2022/12/01 04:20:42;;;;;;;55.33;26.63;;;6.90;99.90;;;;;;5094146;28;20067;-88
2022/12/01 04:23:08;;;;;;;54.92;26.40;;;6.90;99.90;;;;;;5093423;28;20051;-88
2022/12/01 04:25:34;;;;;;;55.13;26.98;;;6.90;99.90;;;;;;5093742;28;20047;-87
2022/12/01 04:27:59;;;;;;;52.47;25.55;;;6.90;99.90;;;;;;5076746;28;20032;-87
2022/12/01 04:30:25;;;;;;;50.10;23.60;;;6.90;99.90;;;;;;5093435;28;20070;-87
2022/12/01 04:32:50;;;;;;;57.95;27.15;;;6.90;99.90;;;;;;5110673;28;20039;-88
2022/12/01 04:35:16;;;;;;;53.13;26.67;;;6.90;99.90;;;;;;5110546;28;20044;-87
2022/12/01 04:37:42;;;;;;;53.17;27.25;;;6.90;99.90;;;;;;5127715;27;20088;-87
2022/12/01 04:40:08;;;;;;;56.90;25.98;;;6.90;99.90;;;;;;5093814;28;20493;-88
2022/12/01 04:42:33;;;;;;;52.88;23.45;;;6.90;99.90;;;;;;5076342;28;20047;-88
2022/12/01 04:44:59;;;;;;;53.22;25.15;;;6.90;99.90;;;;;;5076785;28;20040;-88
2022/12/01 04:47:25;;;;;;;54.88;25.40;;;6.90;99.90;;;;;;5093430;28;20619;-88
2022/12/01 04:49:50;;;;;;;55.22;25.63;;;6.90;99.90;;;;;;5076549;28;20032;-88
2022/12/01 04:52:16;;;;;;;53.70;25.17;;;6.90;99.90;;;;;;5093134;28;20473;-88
2022/12/01 04:54:41;;;;;;;52.65;24.55;;;6.90;99.90;;;;;;5076274;28;20484;-87
2022/12/01 04:57:07;;;;;;;58.95;26.17;;;6.90;99.90;;;;;;5093669;28;20039;-87
2022/12/01 04:59:34;;;;;;;54.25;25.30;;;6.90;99.90;;;;;;5095733;28;20073;-87
2022/12/01 05:02:01;;;;;;;54.20;26.23;;;6.90;99.90;;;;;;5113203;28;20493;-87
2022/12/01 05:04:26;;;;;;;55.58;27.48;;;6.90;99.90;;;;;;5113388;28;20043;-87
2022/12/01 05:06:54;;;;;;;55.88;27.75;;;6.90;99.90;;;;;;5114259;28;20042;-88
2022/12/01 05:09:20;;;;;;;55.05;24.83;;;6.90;99.90;;;;;;5113387;28;20050;-88
2022/12/01 05:11:45;;;;;;;53.47;25.48;;;6.90;99.90;;;;;;5096200;28;20042;-87
2022/12/01 05:14:11;;;;;;;52.75;24.67;;;6.90;99.90;;;;;;5095953;28;20039;-88
2022/12/01 05:16:37;;;;;;;58.42;24.98;;;6.90;99.90;;;;;;5096304;28;20042;-87
2022/12/01 05:21:49;;;;;;;61.05;26.88;;;6.80;99.90;;;;;;5113413;28;20055;-88
2022/12/01 05:24:16;;;;;;;54.38;27.70;;;6.90;99.90;;;;;;5095693;28;20103;-88
2022/12/01 05:26:42;;;;;;;59.10;27.65;;;6.90;99.90;;;;;;5113003;28;20088;-87
2022/12/01 05:29:09;;;;;;;52.78;26.00;;;6.80;99.90;;;;;;5096407;28;20442;-88
2022/12/01 05:31:35;;;;;;;53.28;26.58;;;6.80;99.90;;;;;;5112966;28;20043;-88
2022/12/01 05:34:00;;;;;;;57.47;26.13;;;6.90;99.90;;;;;;5112471;28;20039;-88
2022/12/01 05:36:26;;;;;;;52.05;25.95;;;6.80;99.90;;;;;;5112779;28;20381;-88
2022/12/01 05:38:52;;;;;;;56.55;27.08;;;6.80;99.90;;;;;;5095916;28;20108;-87
2022/12/01 05:41:17;;;;;;;63.72;27.10;;;6.80;99.90;;;;;;5095711;28;20043;-87
2022/12/01 05:43:43;;;;;;;61.95;27.38;;;6.80;99.90;;;;;;5112835;28;20038;-88
2022/12/01 05:46:08;;;;;;;53.20;24.90;;;6.80;99.90;;;;;;5112395;28;20385;-88
2022/12/01 05:48:34;;;;;;;55.65;26.83;;;6.80;99.90;;;;;;5095473;28;20036;-88
2022/12/01 05:51:05;;;;;;;53.75;24.70;;;6.80;99.90;;;;;;5112888;28;20327;-89
2022/12/01 05:53:31;;;;;;;58.85;27.88;;;6.80;99.90;;;;;;5095257;28;20061;-88
2022/12/01 05:55:57;;;;;;;54.53;27.08;;;6.80;99.90;;;;;;5095398;28;20040;-88
2022/12/01 05:58:22;;;;;;;58.35;28.63;;;6.80;99.90;;;;;;5089250;28;20074;-88
2022/12/01 06:00:48;;;;;;;58.30;27.48;;;6.80;99.90;;;;;;5075839;28;20463;-87
2022/12/01 06:03:14;;;;;;;55.90;26.25;;;6.80;99.90;;;;;;5091427;28;20044;-88
2022/12/01 06:05:40;;;;;;;56.83;27.52;;;6.80;99.90;;;;;;5074885;28;20051;-88
2022/12/01 06:08:05;;;;;;;57.35;27.52;;;6.80;99.90;;;;;;5072416;28;20055;-87
2022/12/01 06:10:31;;;;;;;63.53;30.25;;;6.80;99.90;;;;;;5090992;28;20068;-88
2022/12/01 06:12:57;;;;;;;60.25;26.65;;;6.80;99.90;;;;;;5090371;28;20032;-88
2022/12/01 06:15:22;;;;;;;58.45;25.73;;;6.80;99.90;;;;;;5074013;28;20084;-88
2022/12/01 06:17:48;;;;;;;55.15;27.90;;;6.80;99.90;;;;;;5090810;28;20036;-88
2022/12/01 06:20:13;;;;;;;60.00;29.17;;;6.80;99.90;;;;;;5074021;28;20036;-88
2022/12/01 06:22:39;;;;;;;58.28;26.85;;;6.80;99.90;;;;;;5090893;28;20093;-88
2022/12/01 06:25:06;;;;;;;54.53;25.42;;;6.80;99.90;;;;;;5074073;28;20421;-87
2022/12/01 06:27:31;;;;;;;60.25;25.55;;;6.80;99.90;;;;;;5074055;28;20035;-87
2022/12/01 06:29:57;;;;;;;58.35;27.52;;;6.80;99.90;;;;;;5090813;28;20119;-88
2022/12/01 06:32:22;;;;;;;54.40;25.70;;;6.80;99.90;;;;;;5090488;28;20106;-89
2022/12/01 06:34:48;;;;;;;57.75;25.73;;;6.80;99.90;;;;;;5073885;28;20032;-88
2022/12/01 06:37:14;;;;;;;59.83;28.48;;;6.80;99.90;;;;;;5090699;28;20126;-88
2022/12/01 06:39:40;;;;;;;59.55;27.92;;;6.80;99.90;;;;;;5073166;28;20118;-88
2022/12/01 06:42:06;;;;;;;59.15;27.20;;;6.80;99.90;;;;;;5073308;28;20157;-88
2022/12/01 06:44:31;;;;;;;61.35;30.08;;;6.80;99.90;;;;;;5090708;28;20093;-89
2022/12/01 06:46:57;;;;;;;58.75;29.23;;;6.80;99.90;;;;;;5090227;28;20036;-88
2022/12/01 06:49:22;;;;;;;61.60;27.50;;;6.80;99.90;;;;;;5073799;28;20040;-88
2022/12/01 06:51:49;;;;;;;59.58;29.35;;;6.80;99.90;;;;;;5073513;28;20234;-88
2022/12/01 06:54:16;;;;;;;60.08;27.90;;;6.80;99.90;;;;;;5090466;28;20432;-88
2022/12/01 06:56:42;;;;;;;62.30;28.77;;;6.80;99.90;;;;;;5090616;28;20097;-88
2022/12/01 06:59:08;;;;;;;57.88;28.02;;;6.80;99.90;;;;;;5081387;28;20040;-88
2022/12/01 07:01:34;;;;;;;56.83;28.20;;;6.80;99.90;;;;;;5052680;28;20468;-88
2022/12/01 07:03:59;;;;;;;54.20;25.60;;;6.80;99.90;;;;;;5069737;28;20040;-88
2022/12/01 07:06:25;;;;;;;59.80;27.67;;;6.80;99.90;;;;;;5053333;28;20123;-88
2022/12/01 07:08:51;;;;;;;60.90;27.52;;;6.80;99.90;;;;;;5070005;28;20036;-88
2022/12/01 07:11:17;;;;;;;56.80;27.02;;;6.80;99.90;;;;;;5103506;28;20036;-88
2022/12/01 07:13:48;;;;;;;57.33;27.70;;;6.80;99.90;;;;;;5069644;28;20401;-88
2022/12/01 07:16:14;;;;;;;57.28;27.42;;;6.80;99.90;;;;;;5053058;28;20567;-88
2022/12/01 07:18:39;;;;;;;57.40;26.20;;;6.80;99.90;;;;;;5069853;28;20048;-88
2022/12/01 07:21:09;;;;;;;60.88;28.10;;;6.80;99.90;;;;;;5069674;28;20036;-89
2022/12/01 07:23:35;;;;;;;64.18;26.23;;;6.80;99.90;;;;;;5086574;28;20066;-88
2022/12/01 07:26:09;;;;;;;63.90;29.10;;;6.80;99.90;;;;;;5069645;28;20414;-88
2022/12/01 07:28:35;;;;;;;52.95;26.50;;;6.80;99.90;;;;;;5069954;28;20070;-88
2022/12/01 07:31:15;;;;;;;61.00;25.95;;;6.80;99.90;;;;;;5053316;28;20133;-88
2022/12/01 07:33:41;;;;;;;53.30;25.77;;;6.80;99.90;;;;;;5052893;28;20039;-88
2022/12/01 07:36:07;;;;;;;56.30;25.88;;;6.80;99.90;;;;;;5053140;28;20418;-88
2022/12/01 07:38:34;;;;;;;50.45;23.02;;;6.80;99.90;;;;;;5052998;28;20037;-88
2022/12/01 07:41:01;;;;;;;61.42;28.52;;;6.80;99.90;;;;;;5069420;28;20056;-88
2022/12/01 07:43:29;;;;;;;51.53;25.65;;;6.80;99.90;;;;;;5052502;28;20043;-88
2022/12/01 07:45:55;;;;;;;56.25;25.95;;;6.70;99.90;;;;;;5069986;28;20080;-88
2022/12/01 07:48:20;;;;;;;56.80;26.73;;;6.80;99.90;;;;;;5069198;28;20075;-88
2022/12/01 07:50:46;;;;;;;59.33;26.58;;;6.80;99.90;;;;;;5069793;28;20036;-88
2022/12/01 07:53:11;;;;;;;51.65;25.75;;;6.80;99.90;;;;;;5069384;28;20408;-88
2022/12/01 07:55:37;;;;;;;57.45;26.50;;;6.80;99.90;;;;;;5069460;28;20047;-88
2022/12/01 07:58:02;;;;;;;60.45;27.60;;;6.80;99.90;;;;;;5086262;28;20040;-88
2022/12/01 08:00:28;;;;;;;59.92;26.30;;;6.80;99.90;;;;;;5085423;28;20123;-88
2022/12/01 08:02:54;;;;;;;54.88;25.50;;;6.80;99.90;;;;;;5089436;28;20070;-88
2022/12/01 08:05:19;;;;;;;54.13;26.02;;;6.80;99.90;;;;;;5089835;28;20039;-88
2022/12/01 08:07:45;;;;;;;55.25;25.83;;;6.80;99.90;;;;;;5089732;28;20039;-88
2022/12/01 08:10:11;;;;;;;54.60;25.70;;;6.90;99.90;;;;;;5089725;28;20079;-88
2022/12/01 08:12:36;;;;;;;56.00;26.15;;;6.90;99.90;;;;;;5072375;28;20044;-88
2022/12/01 08:15:02;;;;;;;54.63;25.75;;;6.90;99.90;;;;;;5072881;28;20040;-88
2022/12/01 08:17:28;;;;;;;61.60;26.67;;;6.90;99.90;;;;;;5090065;28;20067;-88
2022/12/01 08:19:54;;;;;;;62.90;27.73;;;6.90;99.90;;;;;;5123725;27;20066;-88
2022/12/01 08:22:19;;;;;;;58.17;25.65;;;6.90;99.90;;;;;;5123067;27;20059;-88
2022/12/01 08:24:45;;;;;;;60.70;26.83;;;6.90;99.90;;;;;;5092583;28;20075;-87
2022/12/01 08:27:11;;;;;;;57.88;27.95;;;6.90;99.90;;;;;;5076274;28;20094;-88
2022/12/01 08:29:36;;;;;;;56.00;29.30;;;6.90;99.90;;;;;;5076273;28;20078;-88
2022/12/01 08:32:02;;;;;;;58.72;29.00;;;6.90;99.90;;;;;;5092668;28;20036;-88
2022/12/01 08:34:28;;;;;;;58.00;29.15;;;6.90;99.90;;;;;;5102611;28;20025;-88
2022/12/01 08:36:53;;;;;;;55.35;26.42;;;6.90;99.90;;;;;;5089996;28;20045;-88
2022/12/01 08:39:19;;;;;;;59.47;26.90;;;7.00;99.90;;;;;;5072592;28;20536;-89
2022/12/01 08:41:45;;;;;;;59.88;28.80;;;7.00;99.90;;;;;;5072280;28;20042;-88
2022/12/01 08:44:10;;;;;;;55.53;25.88;;;7.00;99.90;;;;;;5089643;28;20041;-88
2022/12/01 08:46:36;;;;;;;59.55;29.40;;;7.00;99.90;;;;;;5089391;28;20048;-89
2022/12/01 08:49:06;;;;;;;60.47;27.45;;;7.00;99.90;;;;;;5055976;28;20115;-88
2022/12/01 08:51:31;;;;;;;60.72;28.95;;;7.00;99.90;;;;;;5072594;28;20493;-88
2022/12/01 08:53:58;;;;;;;59.55;28.00;;;7.10;99.90;;;;;;5089348;28;20048;-88
2022/12/01 08:56:30;;;;;;;59.35;29.92;;;7.10;99.90;;;;;;5089534;28;20037;-88
2022/12/01 08:58:56;;;;;;;56.80;26.85;;;7.10;99.90;;;;;;5087479;28;20090;-88
2022/12/01 09:01:24;;;;;;;63.58;28.35;;;7.10;99.90;;;;;;5087223;28;20051;-88
2022/12/01 09:04:03;;;;;;;56.15;27.83;;;7.20;99.90;;;;;;5089141;28;20391;-89
2022/12/01 09:06:31;;;;;;;55.30;25.83;;;7.20;99.90;;;;;;5116061;27;20167;-88
2022/12/01 09:08:59;;;;;;;61.13;27.85;;;7.20;99.90;;;;;;5092314;28;20043;-89
2022/12/01 09:11:24;;;;;;;59.15;26.20;;;7.20;99.90;;;;;;5076097;28;20097;-88
2022/12/01 09:13:50;;;;;;;57.85;26.10;;;7.20;99.90;;;;;;5092583;28;20040;-88
2022/12/01 09:16:17;;;;;;;58.03;25.98;;;7.20;99.90;;;;;;5092767;28;20044;-88
2022/12/01 09:18:44;;;;;;;56.25;26.25;;;7.30;99.90;;;;;;5076250;28;20044;-88
2022/12/01 09:21:12;;;;;;;57.33;26.92;;;7.30;99.90;;;;;;5092662;28;20040;-89
2022/12/01 09:23:38;;;;;;;61.58;25.42;;;7.30;99.90;;;;;;5092868;28;20040;-88
2022/12/01 09:26:04;;;;;;;63.40;28.25;;;7.30;99.90;;;;;;5092583;28;20036;-88
2022/12/01 09:28:30;;;;;;;60.60;27.02;;;7.30;99.90;;;;;;5092743;28;20565;-89
2022/12/01 09:31:01;;;;;;;56.05;26.50;;;7.30;99.90;;;;;;5092334;28;20036;-88
2022/12/01 09:33:27;;;;;;;55.13;24.38;;;7.30;99.90;;;;;;5075445;28;20061;-88
2022/12/01 09:35:58;;;;;;;63.75;29.02;;;7.30;99.90;;;;;;5091608;28;20423;-89
2022/12/01 09:38:23;;;;;;;63.28;26.75;;;7.30;99.90;;;;;;5075538;28;20050;-89
2022/12/01 09:40:49;;;;;;;56.95;27.10;;;7.40;99.90;;;;;;5092349;28;20043;-88
2022/12/01 09:43:21;;;;;;;54.38;25.52;;;7.40;99.90;;;;;;5075240;28;20043;-88
2022/12/01 09:45:53;;;;;;;56.83;24.83;;;7.40;99.90;;;;;;5092329;28;20032;-88
2022/12/01 09:48:44;;;;;;;60.08;24.65;;;7.40;99.90;;;;;;5089089;28;20046;-89
2022/12/01 09:51:19;;;;;;;51.78;24.65;;;7.40;99.90;;;;;;5074819;28;20489;-89
2022/12/01 09:53:53;;;;;;;57.10;25.10;;;7.40;99.90;;;;;;5074495;28;20036;-88
2022/12/01 09:56:28;;;;;;;55.78;25.77;;;7.40;99.90;;;;;;5091584;28;20040;-89
2022/12/01 09:59:05;;;;;;;57.33;25.52;;;7.50;99.90;;;;;;5069693;28;20036;-89
2022/12/01 10:01:35;;;;;;;57.30;26.92;;;7.50;99.90;;;;;;5089708;28;20047;-88
2022/12/01 10:04:18;;;;;;;52.80;24.60;;;7.50;99.90;;;;;;5089312;28;20036;-88
2022/12/01 10:06:51;;;;;;;52.33;25.92;;;7.50;99.90;;;;;;5089415;28;20165;-89
2022/12/01 10:09:52;;;;;;;53.85;24.83;;;7.50;99.90;;;;;;5106636;28;20588;-89
2022/12/01 10:12:26;;;;;;;56.55;24.98;;;7.50;99.90;;;;;;5023328;28;20037;-89
2022/12/01 10:15:13;;;;;;;52.65;26.10;;;7.50;99.90;;;;;;5073984;28;20169;-89
2022/12/01 10:18:01;;;;;;;52.42;24.45;;;7.50;99.90;;;;;;5041882;28;20048;-89
2022/12/01 10:20:44;;;;;;;49.90;23.35;;;7.60;99.90;;;;;;5073444;28;20036;-89
2022/12/01 10:23:16;;;;;;;56.17;25.75;;;7.60;99.90;;;;;;5092802;28;20114;-89
2022/12/01 10:25:56;;;;;;;47.13;23.85;;;7.60;99.90;;;;;;5072912;28;20046;-89
2022/12/01 10:28:52;;;;;;;49.92;24.85;;;7.60;99.90;;;;;;5089402;28;20089;-89
2022/12/01 10:31:27;;;;;;;49.40;24.27;;;7.60;99.90;;;;;;5110495;28;20039;-88
2022/12/01 10:34:09;;;;;;;53.25;24.98;;;7.60;99.90;;;;;;5104169;28;20040;-89
2022/12/01 10:36:35;;;;;;;50.17;23.30;;;7.60;99.90;;;;;;5110258;28;20068;-89
2022/12/01 10:39:03;;;;;;;49.88;23.65;;;7.70;99.90;;;;;;5092066;28;20051;-89
2022/12/01 10:41:32;;;;;;;51.08;23.85;;;7.70;99.90;;;;;;5090877;28;20067;-89
2022/12/01 10:43:59;;;;;;;45.08;22.27;;;7.70;99.90;;;;;;5092944;28;20073;-89
2022/12/01 10:46:37;;;;;;;54.55;25.77;;;7.70;99.90;;;;;;5109092;28;20039;-89
2022/12/01 10:49:09;;;;;;;55.13;25.35;;;7.70;99.90;;;;;;5093221;28;20366;-88
2022/12/01 10:51:56;;;;;;;48.40;21.80;;;7.80;99.90;;;;;;5105044;28;20112;-89
2022/12/01 10:54:30;;;;;;;48.15;23.30;;;7.80;99.90;;;;;;5109984;28;20027;-89
2022/12/01 10:56:56;;;;;;;47.70;24.10;;;7.80;99.90;;;;;;5109245;28;20040;-89
2022/12/01 10:59:30;;;;;;;47.05;23.17;;;7.80;99.90;;;;;;5092233;28;20036;-89
2022/12/01 11:01:57;;;;;;;51.85;23.80;;;7.80;99.90;;;;;;5109661;28;20047;-89
2022/12/01 11:04:30;;;;;;;50.05;23.95;;;7.80;99.90;;;;;;5103420;28;20052;-88
2022/12/01 11:06:56;;;;;;;43.83;22.88;;;7.80;99.90;;;;;;5092697;28;20040;-89
2022/12/01 11:09:27;;;;;;;47.10;22.45;;;7.80;99.90;;;;;;5089532;28;20078;-88
2022/12/01 11:11:59;;;;;;;39.75;20.80;;;7.80;99.90;;;;;;5098026;28;20028;-89
2022/12/01 11:14:48;;;;;;;49.80;23.83;;;7.80;99.90;;;;;;5112721;27;20036;-89
2022/12/01 11:17:26;;;;;;;48.50;24.23;;;7.80;99.90;;;;;;5087296;28;20439;-89
2022/12/01 11:19:51;;;;;;;48.33;22.88;;;7.90;99.90;;;;;;5090177;28;20044;-88
2022/12/01 11:22:21;;;;;;;46.97;24.88;;;7.90;99.90;;;;;;5073150;28;20563;-90
2022/12/01 11:25:03;;;;;;;51.25;25.15;;;7.90;99.90;;;;;;5089989;28;20093;-89
2022/12/01 11:27:49;;;;;;;47.03;21.33;;;7.90;99.90;;;;;;5073324;28;20044;-88
2022/12/01 11:30:21;;;;;;;47.05;23.80;;;7.90;99.90;;;;;;5091698;28;20046;-88
2022/12/01 11:32:53;;;;;;;41.28;21.13;;;8.00;99.90;;;;;;5090291;28;20115;-89
2022/12/01 11:35:21;;;;;;;41.07;20.80;;;8.00;99.90;;;;;;5073321;28;20411;-89
2022/12/01 11:37:52;;;;;;;46.17;24.00;;;8.00;99.90;;;;;;5089086;28;20274;-90
2022/12/01 11:40:31;;;;;;;51.50;23.98;;;8.10;99.90;;;;;;5073079;28;20036;-89
2022/12/01 11:43:00;;;;;;;43.47;22.67;;;8.10;99.90;;;;;;5070665;28;20123;-89
2022/12/01 11:45:27;;;;;;;45.45;22.35;;;8.10;99.90;;;;;;5088415;28;20036;-89
2022/12/01 11:48:11;;;;;;;47.47;22.85;;;8.10;99.90;;;;;;5087912;28;20040;-89
2022/12/01 11:50:40;;;;;;;47.38;23.42;;;8.20;99.90;;;;;;5088552;28;20178;-90
2022/12/01 11:53:29;;;;;;;45.85;22.60;;;8.20;99.90;;;;;;5069215;28;20039;-89
2022/12/01 11:56:28;;;;;;;40.30;20.67;;;8.20;99.90;;;;;;5075764;28;20039;-89
2022/12/01 11:59:04;;;;;;;43.63;19.27;;;8.20;99.90;;;;;;5114543;27;20037;-89
2022/12/01 12:01:35;;;;;;;40.83;20.88;;;8.20;99.90;;;;;;5084674;28;20526;-89
2022/12/01 12:04:13;;;;;;;40.40;21.38;;;8.20;99.90;;;;;;5076615;28;20071;-89
2022/12/01 12:07:03;;;;;;;44.60;23.15;;;8.20;99.90;;;;;;5127816;27;20036;-89
2022/12/01 12:09:50;;;;;;;42.92;20.77;;;8.30;99.90;;;;;;5076319;28;20036;-88
2022/12/01 12:12:29;;;;;;;40.90;20.75;;;8.30;99.90;;;;;;5073351;28;20129;-90
2022/12/01 12:15:24;;;;;;;44.33;21.02;;;8.30;99.90;;;;;;5092393;28;20028;-90
2022/12/01 12:17:56;;;;;;;41.55;21.25;;;8.30;99.90;;;;;;5091275;28;20036;-90
2022/12/01 12:20:33;;;;;;;46.30;22.83;;;8.30;99.90;;;;;;5075912;28;20038;-90
2022/12/01 12:23:17;;;;;;;42.45;22.83;;;8.30;99.90;;;;;;5092640;28;20032;-90
2022/12/01 12:26:23;;;;;;;38.22;19.70;;;8.30;99.90;;;;;;5075417;28;20047;-89
2022/12/01 12:29:42;;;;;;;45.63;22.35;;;8.30;99.90;;;;;;5093655;28;20074;-89
2022/12/01 12:32:45;;;;;;;42.63;21.23;;;8.30;99.90;;;;;;5015896;28;20038;-88
2022/12/01 12:35:23;;;;;;;40.90;19.38;;;8.30;99.90;;;;;;4999391;28;20043;-88
2022/12/01 12:38:23;;;;;;;39.70;21.23;;;8.30;99.90;;;;;;4999230;28;20412;-88
2022/12/01 12:40:48;;;;;;;42.17;20.70;;;8.30;99.90;;;;;;5031743;28;20411;-89
2022/12/01 12:43:35;;;;;;;43.72;21.95;;;8.30;99.90;;;;;;5031356;28;20532;-88
2022/12/01 12:46:12;;;;;;;39.85;20.23;;;8.20;99.90;;;;;;5031608;28;20069;-89
2022/12/01 12:49:05;;;;;;;43.17;21.80;;;8.20;99.90;;;;;;5013281;28;20038;-88
2022/12/01 12:51:40;;;;;;;36.28;19.13;;;8.20;99.90;;;;;;4998076;28;20048;-88
2022/12/01 12:54:11;;;;;;;42.30;22.50;;;8.20;99.90;;;;;;4997802;28;20124;-88
2022/12/01 12:56:43;;;;;;;42.20;21.38;;;8.20;99.90;;;;;;5014465;28;20049;-88
2022/12/01 12:59:18;;;;;;;39.83;20.88;;;8.20;99.90;;;;;;5030767;28;20053;-88
2022/12/01 13:01:56;;;;;;;41.65;20.27;;;8.30;99.90;;;;;;5031891;28;20398;-88